createdAt,value
2018-03-23T00:03:08.897Z,53.6
2018-03-23T00:13:08.156Z,54.4
2018-03-23T00:23:07.373Z,55.1
2018-03-23T00:33:06.507Z,55.9
2018-03-23T00:43:05.731Z,56.7
2018-03-23T00:53:04.918Z,57.4
2018-03-23T01:03:04.119Z,58.1
2018-03-23T01:13:03.326Z,58.9
2018-03-23T01:23:02.568Z,59.6
2018-03-23T01:33:01.742Z,60.3
2018-03-23T01:43:00.994Z,60.4
2018-03-23T01:53:00.145Z,60.3
2018-03-23T02:02:59.327Z,60.1
2018-03-23T02:12:58.580Z,59.7
2018-03-23T02:22:57.731Z,59.6
2018-03-23T02:32:56.955Z,59.4
2018-03-23T02:42:56.138Z,59.3
2018-03-23T02:52:55.336Z,59.2
2018-03-23T03:02:54.586Z,59.1
2018-03-23T03:12:53.790Z,59
2018-03-23T03:22:52.960Z,58.9
2018-03-23T03:32:52.162Z,58.8
2018-03-23T03:42:51.363Z,57.8
2018-03-23T03:52:50.597Z,50.4
2018-03-23T04:02:49.750Z,51.3
2018-03-23T04:12:48.956Z,51.5
2018-03-23T04:22:48.178Z,50.8
2018-03-23T04:32:47.360Z,50.8
2018-03-23T04:42:46.563Z,49.6
2018-03-23T04:52:45.768Z,49.5
2018-03-23T05:02:44.995Z,48.3
2018-03-23T05:12:44.177Z,47.9
2018-03-23T05:22:43.399Z,46.9
2018-03-23T05:32:42.588Z,47.3
2018-03-23T05:42:41.788Z,44.9
2018-03-23T05:52:40.994Z,46.1
2018-03-23T06:02:40.220Z,47.1
2018-03-23T06:12:39.449Z,48.1
2018-03-23T06:22:38.639Z,48.9
2018-03-23T06:32:37.806Z,49.9
2018-03-23T06:42:37.009Z,50.8
2018-03-23T06:52:36.279Z,51.2
2018-03-23T07:02:35.415Z,51.2
2018-03-23T07:12:34.618Z,51.2
2018-03-23T07:22:33.931Z,51.3
2018-03-23T07:32:33.080Z,51.3
2018-03-23T07:42:32.311Z,51.3
2018-03-23T07:52:31.486Z,51.3
2018-03-23T08:02:30.667Z,51.3
2018-03-23T08:12:29.866Z,51.3
2018-03-23T08:22:29.136Z,51.3
2018-03-23T08:32:28.289Z,52.3
2018-03-23T08:42:27.489Z,52.6
2018-03-23T08:52:26.690Z,52.6
2018-03-23T09:02:25.922Z,52.6
2018-03-23T09:12:25.071Z,52.6
2018-03-23T09:22:24.343Z,52.6
2018-03-23T09:32:23.474Z,52.6
2018-03-23T09:42:22.724Z,52.6
2018-03-23T09:52:21.877Z,52.6
2018-03-23T10:02:21.076Z,52.6
2018-03-23T10:12:20.279Z,52.6
2018-03-23T10:22:19.498Z,56.8
2018-03-23T10:32:18.723Z,56.8
2018-03-23T10:42:17.975Z,57.9
2018-03-23T10:52:17.111Z,58.2
2018-03-23T11:02:16.306Z,58.6
2018-03-23T11:12:15.507Z,58.9
2018-03-23T11:22:14.710Z,58.9
2018-03-23T11:32:14.000Z,59.8
2018-03-23T11:42:13.161Z,59.8
2018-03-23T11:52:12.367Z,59.8
2018-03-23T12:02:11.566Z,59.8
2018-03-23T12:12:10.768Z,59.8
2018-03-23T12:22:09.991Z,59.8
2018-03-23T12:32:09.251Z,59.8
2018-03-23T12:42:08.382Z,61.3
2018-03-23T12:52:07.632Z,61.3
2018-03-23T13:02:06.783Z,61.4
2018-03-23T13:12:05.984Z,61.3
2018-03-23T13:22:05.185Z,61.3
2018-03-23T13:32:04.391Z,61.3
2018-03-23T13:42:03.607Z,61.3
2018-03-23T13:52:02.791Z,61.2
2018-03-23T14:02:01.996Z,61.1
2018-03-23T14:12:01.240Z,61
2018-03-23T14:22:00.419Z,60.9
2018-03-23T14:31:59.590Z,60.9
2018-03-23T14:41:58.840Z,60.8
2018-03-23T14:51:58.041Z,60.7
2018-03-23T15:01:57.197Z,60.6
2018-03-23T15:11:56.413Z,60.5
2018-03-23T15:21:55.593Z,60.4
2018-03-23T15:31:54.845Z,60.4
2018-03-23T15:41:54.014Z,60.3
2018-03-23T15:51:53.270Z,59.9
2018-03-23T16:01:52.451Z,59.5
2018-03-23T16:11:51.598Z,58.9
2018-03-23T16:21:50.802Z,56.3
2018-03-23T16:31:50.024Z,55.6
2018-03-23T16:41:49.227Z,53.8
2018-03-23T16:51:48.410Z,53.1
2018-03-23T17:01:47.614Z,52.3
2018-03-23T17:11:46.817Z,52.1
2018-03-23T17:21:46.018Z,51.8
2018-03-23T17:31:45.243Z,51.4
2018-03-23T17:41:44.491Z,51.3
2018-03-23T17:51:43.671Z,50.8
2018-03-23T18:01:42.824Z,50.1
2018-03-23T18:11:42.024Z,47.5
2018-03-23T18:21:41.228Z,45.6
2018-03-23T18:31:40.481Z,43.8
2018-03-23T18:41:39.656Z,44.8
2018-03-23T18:51:38.892Z,45.4
2018-03-23T19:01:38.054Z,45.5
2018-03-23T19:11:37.284Z,45.4
2018-03-23T19:21:36.478Z,46
2018-03-23T19:31:35.717Z,46.8
2018-03-23T19:41:34.971Z,47.5
2018-03-23T19:51:34.096Z,48.1
2018-03-23T20:01:33.295Z,48.3
2018-03-23T20:11:32.652Z,48.5
2018-03-23T20:21:31.723Z,48.9
2018-03-23T20:31:30.925Z,49.5
2018-03-23T20:41:30.177Z,50.4
2018-03-23T20:51:29.309Z,51.2
2018-03-23T21:01:28.511Z,51.8
2018-03-23T21:11:27.719Z,52.5
2018-03-23T21:21:26.995Z,53.2
2018-03-23T21:31:26.121Z,53.9
2018-03-23T21:41:25.388Z,54.6
2018-03-23T21:51:24.574Z,55.3
2018-03-23T22:01:23.772Z,55.9
2018-03-23T22:11:22.994Z,56.6
2018-03-23T22:21:23.454Z,57.3
2018-03-23T22:31:22.643Z,58
2018-03-23T22:41:21.859Z,58.7
2018-03-23T22:51:21.040Z,59.3
2018-03-23T23:01:20.243Z,60
2018-03-23T23:11:19.460Z,60.6
2018-03-23T23:21:18.647Z,60.8
2018-03-23T23:31:17.871Z,60.6
2018-03-23T23:41:17.049Z,60.5
2018-03-23T23:51:16.258Z,60.4
